Time;durP1;ratioP1;P1;durP2;ratioP2;P2;SDS_P1;SDS_P2;PMS_P1;PMS_P2;Temp;Humidity;BMP_temperature;BMP_pressure;BME280_temperature;BME280_humidity;BME280_pressure;Samples;Min_cycle;Max_cycle;Signal;HPM_P1;HPM_P2
2023/05/09 00:00:13;;;;;;;1999.90;999.90;;;13.40;99.90;;;;;;5054275;28;20532;-84
2023/05/09 00:02:40;;;;;;;1999.90;999.90;;;13.40;99.90;;;;;;5055502;28;20493;-86
2023/05/09 00:05:06;;;;;;;1999.90;999.90;;;13.40;99.90;;;;;;5054062;28;20132;-85
2023/05/09 00:07:32;;;;;;;1999.90;999.90;;;13.40;99.90;;;;;;5072920;28;20029;-85
2023/05/09 00:09:58;;;;;;;1999.90;999.90;;;13.40;99.90;;;;;;5063282;28;20034;-84
2023/05/09 00:12:24;;;;;;;1999.90;999.90;;;13.40;99.90;;;;;;5053765;28;20030;-84
2023/05/09 00:14:50;;;;;;;1999.90;999.90;;;13.50;99.90;;;;;;5053810;28;20033;-84
2023/05/09 00:17:17;;;;;;;1999.90;999.90;;;13.50;99.90;;;;;;5055414;28;20373;-86
2023/05/09 00:19:43;;;;;;;1999.90;999.90;;;13.50;99.90;;;;;;5053515;28;20065;-84
2023/05/09 00:22:09;;;;;;;1999.90;999.90;;;13.40;99.90;;;;;;5053000;28;20087;-85
2023/05/09 00:24:35;;;;;;;1999.90;999.90;;;13.30;99.90;;;;;;5053866;28;20083;-84
2023/05/09 00:27:00;;;;;;;1999.90;999.90;;;13.30;99.90;;;;;;5054031;28;20030;-85
2023/05/09 00:29:26;;;;;;;1999.90;999.90;;;13.40;99.90;;;;;;5053758;28;20045;-84
2023/05/09 00:31:51;;;;;;;1999.90;999.90;;;13.30;99.90;;;;;;5055041;28;20206;-85
2023/05/09 00:34:17;;;;;;;1999.90;999.90;;;13.30;99.90;;;;;;5053670;28;20034;-88
2023/05/09 00:36:42;;;;;;;1999.90;999.90;;;13.20;99.90;;;;;;5053796;28;20037;-85
2023/05/09 00:39:08;;;;;;;1999.90;999.90;;;13.10;99.90;;;;;;5053871;28;20124;-85
2023/05/09 00:41:34;;;;;;;1999.90;999.90;;;13.00;99.90;;;;;;5067816;28;20055;-85
2023/05/09 00:43:59;;;;;;;1999.90;999.90;;;13.00;99.90;;;;;;5073767;28;20398;-85
2023/05/09 00:46:25;;;;;;;1999.90;999.90;;;12.90;99.90;;;;;;5056763;28;20033;-85
2023/05/09 00:48:51;;;;;;;1999.90;999.90;;;12.90;99.90;;;;;;5053549;28;20453;-85
2023/05/09 00:51:17;;;;;;;1999.90;999.90;;;12.90;99.90;;;;;;5053931;28;20030;-85
2023/05/09 00:53:44;;;;;;;1999.90;999.90;;;12.70;99.90;;;;;;5053582;28;20036;-85
2023/05/09 00:56:11;;;;;;;1999.90;999.90;;;12.70;99.90;;;;;;5053483;28;20040;-86
2023/05/09 00:58:37;;;;;;;1999.90;999.90;;;12.60;99.90;;;;;;5053447;28;20045;-85
2023/05/09 01:01:03;;;;;;;1999.90;999.90;;;12.60;99.90;;;;;;5053493;28;20395;-85
2023/05/09 01:03:30;;;;;;;1999.90;999.90;;;12.50;99.90;;;;;;5054779;28;20036;-85
2023/05/09 01:06:09;;;;;;;1999.90;999.90;;;12.60;99.90;;;;;;5054986;28;20514;-86
2023/05/09 01:09:06;;;;;;;1999.90;999.90;;;12.40;99.90;;;;;;5053507;28;20037;-85
2023/05/09 01:11:55;;;;;;;1999.90;999.90;;;12.40;99.90;;;;;;5061368;28;20056;-84
2023/05/09 01:14:28;;;;;;;1999.90;999.90;;;12.40;99.90;;;;;;5073411;28;20039;-84
2023/05/09 01:17:05;;;;;;;1999.90;999.90;;;12.40;99.90;;;;;;5073450;28;20029;-85
2023/05/09 01:20:04;;;;;;;1999.90;999.90;;;12.40;99.90;;;;;;5073308;28;20029;-86
2023/05/09 01:22:35;;;;;;;1999.90;999.90;;;12.50;99.90;;;;;;5073034;28;20188;-83
2023/05/09 01:25:20;;;;;;;1999.90;999.90;;;12.50;99.90;;;;;;5073333;28;20032;-85
2023/05/09 01:28:13;;;;;;;1999.90;999.90;;;12.60;99.90;;;;;;5048924;22;20571;-73
2023/05/09 01:30:41;;;;;;;1999.90;999.90;;;12.60;99.90;;;;;;4992817;28;20174;-73
2023/05/09 01:33:08;;;;;;;1999.90;999.90;;;12.70;99.90;;;;;;5010820;28;20092;-73
2023/05/09 01:35:38;;;;;;;1999.90;999.90;;;12.70;99.90;;;;;;5012421;28;20153;-73
2023/05/09 01:38:12;;;;;;;1999.90;999.90;;;12.70;99.90;;;;;;5016532;28;20527;-73
2023/05/09 01:40:41;;;;;;;1999.90;999.90;;;12.80;99.90;;;;;;5015901;28;20034;-72
2023/05/09 01:43:09;;;;;;;1999.90;999.90;;;12.80;99.90;;;;;;5015726;28;20837;-73
2023/05/09 01:45:37;;;;;;;1999.90;999.90;;;12.80;99.90;;;;;;5016516;28;20506;-73
2023/05/09 01:48:05;;;;;;;1999.90;999.90;;;12.80;99.90;;;;;;5016807;28;20096;-73
2023/05/09 01:50:32;;;;;;;1999.90;999.90;;;12.90;99.90;;;;;;5001764;28;20047;-75
2023/05/09 01:53:00;;;;;;;1999.90;999.90;;;12.90;99.90;;;;;;4997557;28;20025;-74
2023/05/09 01:55:31;;;;;;;1999.90;999.90;;;13.00;99.90;;;;;;5001834;28;20424;-75
2023/05/09 01:57:58;;;;;;;1999.90;999.90;;;13.00;99.90;;;;;;5017067;28;20112;-75
2023/05/09 02:00:24;;;;;;;1999.90;999.90;;;13.10;99.90;;;;;;5015239;28;20046;-75
2023/05/09 02:02:51;;;;;;;1999.90;999.90;;;13.10;99.90;;;;;;4997164;28;20508;-75
2023/05/09 02:05:17;;;;;;;1999.90;999.90;;;13.10;99.90;;;;;;4997167;28;20110;-73
2023/05/09 02:07:45;;;;;;;1999.90;999.90;;;13.10;99.90;;;;;;4997100;28;20092;-73
2023/05/09 02:10:11;;;;;;;1999.90;999.90;;;13.10;99.90;;;;;;4997321;28;20070;-72
2023/05/09 02:12:38;;;;;;;1999.90;999.90;;;13.20;99.90;;;;;;4995838;28;20041;-73
2023/05/09 02:15:05;;;;;;;1999.90;999.90;;;13.20;99.90;;;;;;4996997;28;20054;-73
2023/05/09 02:17:31;;;;;;;1999.90;999.90;;;13.20;99.90;;;;;;5001794;28;20034;-73
2023/05/09 02:19:56;;;;;;;1999.90;999.90;;;13.20;99.90;;;;;;5016999;28;20042;-74
2023/05/09 02:22:22;;;;;;;1999.90;999.90;;;13.10;99.90;;;;;;5011452;28;20539;-73
2023/05/09 02:24:48;;;;;;;1999.90;999.90;;;13.10;99.90;;;;;;4998615;28;20034;-73
2023/05/09 02:27:14;;;;;;;1999.90;999.90;;;13.00;99.90;;;;;;5012546;28;20385;-73
2023/05/09 02:29:48;;;;;;;1999.90;999.90;;;13.00;99.90;;;;;;4995519;28;20046;-73
2023/05/09 02:32:15;;;;;;;1999.90;999.90;;;13.00;99.90;;;;;;4997295;28;20027;-74
2023/05/09 02:34:42;;;;;;;1999.90;999.90;;;13.00;99.90;;;;;;4996871;28;20066;-73
2023/05/09 02:37:09;;;;;;;1999.90;999.90;;;13.00;99.90;;;;;;4996684;28;20108;-73
2023/05/09 02:39:35;;;;;;;1999.90;999.90;;;13.00;99.90;;;;;;4995437;28;20050;-73
2023/05/09 02:42:09;;;;;;;1999.90;999.90;;;13.00;99.90;;;;;;4996917;28;20042;-73
2023/05/09 02:44:35;;;;;;;1999.90;999.90;;;13.00;99.90;;;;;;4996609;28;20504;-73
2023/05/09 02:47:01;;;;;;;1999.90;999.90;;;13.00;99.90;;;;;;4995170;28;20035;-74
2023/05/09 02:49:27;;;;;;;1999.90;999.90;;;13.00;99.90;;;;;;4996722;28;20038;-73
2023/05/09 02:51:53;;;;;;;1999.90;999.90;;;13.00;99.90;;;;;;5006248;28;20105;-73
2023/05/09 02:54:18;;;;;;;1999.90;999.90;;;13.00;99.90;;;;;;5012601;28;20046;-73
2023/05/09 02:56:44;;;;;;;1999.90;999.90;;;13.00;99.90;;;;;;4996506;28;20030;-73
2023/05/09 02:59:09;;;;;;;1999.90;999.90;;;13.00;99.90;;;;;;5012300;28;20041;-73
2023/05/09 03:01:35;;;;;;;1999.90;999.90;;;13.00;99.90;;;;;;5016302;28;20034;-73
2023/05/09 03:04:01;;;;;;;1999.90;999.90;;;13.00;99.90;;;;;;5015844;28;20502;-73
2023/05/09 03:06:26;;;;;;;1999.90;999.90;;;13.00;99.90;;;;;;5014617;28;20030;-73
2023/05/09 03:08:52;;;;;;;1999.90;999.90;;;13.00;99.90;;;;;;5015188;28;20050;-73
2023/05/09 03:11:17;;;;;;;1999.90;999.90;;;13.00;99.90;;;;;;5016229;28;20043;-73
2023/05/09 03:13:43;;;;;;;1999.90;999.90;;;13.00;99.90;;;;;;5014013;28;20030;-73
2023/05/09 03:16:12;;;;;;;1999.90;999.90;;;13.00;99.90;;;;;;5015855;28;20038;-73
2023/05/09 03:18:38;;;;;;;1999.90;999.90;;;13.00;99.90;;;;;;5002710;28;20043;-73
2023/05/09 03:21:04;;;;;;;1999.90;999.90;;;13.00;99.90;;;;;;4996339;28;20070;-73
2023/05/09 03:23:29;;;;;;;1999.90;999.90;;;13.00;99.90;;;;;;4995929;28;20396;-73
2023/05/09 03:25:55;;;;;;;1999.90;999.90;;;13.00;99.90;;;;;;4994572;28;20038;-74
2023/05/09 03:28:21;;;;;;;1999.90;999.90;;;13.00;99.90;;;;;;4995563;28;20417;-73
2023/05/09 03:30:46;;;;;;;1999.90;999.90;;;13.00;99.90;;;;;;4995708;28;20090;-73
2023/05/09 03:33:12;;;;;;;1999.90;999.90;;;13.00;99.90;;;;;;4996146;28;20042;-73
2023/05/09 03:35:37;;;;;;;1999.90;999.90;;;13.00;99.90;;;;;;4995818;28;20492;-73
2023/05/09 03:38:03;;;;;;;1999.90;999.90;;;13.00;99.90;;;;;;4995724;28;20035;-73
2023/05/09 03:40:28;;;;;;;1999.90;999.90;;;13.00;99.90;;;;;;4994527;28;20035;-73
2023/05/09 03:42:54;;;;;;;1999.90;999.90;;;12.90;99.90;;;;;;5003614;28;20030;-73
2023/05/09 03:45:19;;;;;;;1999.90;999.90;;;13.00;99.90;;;;;;5014304;28;20066;-73
2023/05/09 03:47:45;;;;;;;1999.90;999.90;;;12.90;99.90;;;;;;5015125;28;20488;-74
2023/05/09 03:50:10;;;;;;;1999.90;999.90;;;12.90;99.90;;;;;;5011618;28;20039;-74
2023/05/09 03:52:36;;;;;;;1999.90;999.90;;;12.90;99.90;;;;;;4995967;28;20070;-73
2023/05/09 03:55:02;;;;;;;1999.90;999.90;;;13.00;99.90;;;;;;4994123;28;20492;-74
2023/05/09 03:57:27;;;;;;;1999.90;999.90;;;13.00;99.90;;;;;;4995356;28;20118;-73
2023/05/09 03:59:53;;;;;;;1999.90;999.90;;;13.00;99.90;;;;;;5009866;28;20113;-75
2023/05/09 04:02:19;;;;;;;1999.90;999.90;;;13.00;99.90;;;;;;4996118;28;20031;-78
2023/05/09 04:04:46;;;;;;;1999.90;999.90;;;13.00;99.90;;;;;;5010357;28;20100;-74
2023/05/09 04:07:11;;;;;;;1999.90;999.90;;;13.00;99.90;;;;;;5007487;28;20042;-74
2023/05/09 04:09:37;;;;;;;1999.90;999.90;;;13.10;99.90;;;;;;4995949;28;20047;-75
2023/05/09 04:12:03;;;;;;;1999.90;999.90;;;13.10;99.90;;;;;;4994062;28;20520;-74
2023/05/09 04:14:28;;;;;;;1999.90;999.90;;;13.20;99.90;;;;;;4993863;28;20035;-75
2023/05/09 04:16:54;;;;;;;1999.90;999.90;;;13.20;99.90;;;;;;4993933;28;20034;-74
2023/05/09 04:19:19;;;;;;;1999.90;999.90;;;13.30;99.90;;;;;;4995263;28;20485;-74
2023/05/09 04:21:45;;;;;;;1999.90;999.90;;;13.30;99.90;;;;;;4993976;28;20034;-73
2023/05/09 04:24:10;;;;;;;1999.90;999.90;;;13.30;99.90;;;;;;4995252;28;20035;-73
2023/05/09 04:26:37;;;;;;;1999.90;999.90;;;13.40;99.90;;;;;;4994552;28;20035;-74
2023/05/09 04:29:03;;;;;;;1999.90;999.90;;;13.40;99.90;;;;;;4995425;28;20408;-73
2023/05/09 04:31:30;;;;;;;1999.90;999.90;;;13.40;99.90;;;;;;4993778;28;20114;-73
2023/05/09 04:33:57;;;;;;;1999.90;999.90;;;13.40;99.90;;;;;;4995019;28;20039;-73
2023/05/09 04:36:22;;;;;;;1999.90;999.90;;;13.50;99.90;;;;;;4994950;28;20030;-73
2023/05/09 04:38:48;;;;;;;1999.90;999.90;;;13.50;99.90;;;;;;4993732;28;20034;-74
2023/05/09 04:41:13;;;;;;;1999.90;999.90;;;13.60;99.90;;;;;;4995192;28;20123;-74
2023/05/09 04:43:39;;;;;;;1999.90;999.90;;;13.70;99.90;;;;;;4995151;28;20481;-74
2023/05/09 04:46:06;;;;;;;1999.90;999.90;;;13.70;99.90;;;;;;4993113;28;20031;-75
2023/05/09 04:48:32;;;;;;;1999.90;999.90;;;13.80;99.90;;;;;;4994869;28;20031;-74
2023/05/09 04:50:57;;;;;;;1999.90;999.90;;;13.80;99.90;;;;;;4994760;28;20097;-74
2023/05/09 04:53:23;;;;;;;1999.90;999.90;;;13.90;99.90;;;;;;4995034;28;20113;-75
2023/05/09 04:55:48;;;;;;;1999.90;999.90;;;14.00;99.90;;;;;;4992527;28;21332;-74
2023/05/09 04:58:14;;;;;;;1999.90;999.90;;;14.10;99.90;;;;;;4994612;28;20035;-74
2023/05/09 05:00:40;;;;;;;1999.90;999.90;;;14.10;99.90;;;;;;4994869;28;20452;-74
2023/05/09 05:03:05;;;;;;;1999.90;999.90;;;14.20;99.90;;;;;;4994866;28;20751;-74
2023/05/09 05:05:31;;;;;;;1999.90;999.90;;;14.30;99.90;;;;;;4994539;28;20412;-74
2023/05/09 05:07:56;;;;;;;1999.90;999.90;;;14.30;99.90;;;;;;4994587;28;20030;-74
2023/05/09 05:10:22;;;;;;;1999.90;999.90;;;14.30;99.90;;;;;;4993136;28;20495;-74
2023/05/09 05:12:47;;;;;;;1999.90;999.90;;;14.30;99.90;;;;;;4997439;28;20400;-74
2023/05/09 05:15:13;;;;;;;1999.90;999.90;;;14.30;99.90;;;;;;4997734;28;20043;-75
2023/05/09 05:17:39;;;;;;;1999.90;999.90;;;14.30;99.90;;;;;;4998163;28;20039;-74
2023/05/09 05:20:05;;;;;;;1999.90;999.90;;;14.30;99.90;;;;;;4998184;28;20038;-74
2023/05/09 05:22:31;;;;;;;1999.90;999.90;;;14.30;99.90;;;;;;4997635;28;20035;-74
2023/05/09 05:24:56;;;;;;;1999.90;999.90;;;14.30;99.90;;;;;;4997733;28;20378;-74
2023/05/09 05:27:22;;;;;;;1999.90;999.90;;;14.30;99.90;;;;;;4997224;28;20039;-74
2023/05/09 05:29:47;;;;;;;1999.90;999.90;;;14.40;99.90;;;;;;4997790;28;20126;-74
2023/05/09 05:32:13;;;;;;;1999.90;999.90;;;14.50;99.90;;;;;;4996424;28;20397;-73
2023/05/09 05:34:39;;;;;;;1999.90;999.90;;;14.60;99.90;;;;;;4996021;28;20508;-73
2023/05/09 05:37:04;;;;;;;1999.90;999.90;;;14.80;99.90;;;;;;4996147;28;20066;-74
2023/05/09 05:39:30;;;;;;;1999.90;999.90;;;15.00;99.90;;;;;;4997793;28;20444;-73
2023/05/09 05:41:55;;;;;;;1999.90;999.90;;;15.10;99.90;;;;;;4996441;28;20153;-74
2023/05/09 05:44:21;;;;;;;1999.90;999.90;;;15.30;99.90;;;;;;4997457;28;20037;-75
2023/05/09 05:46:46;;;;;;;1999.90;999.90;;;15.40;99.90;;;;;;4997533;28;20078;-75
2023/05/09 05:49:19;;;;;;;1999.90;999.90;;;15.50;99.90;;;;;;4997534;28;20086;-74
2023/05/09 05:51:45;;;;;;;1999.90;999.90;;;15.50;99.90;;;;;;4997850;28;20121;-74
2023/05/09 05:54:10;;;;;;;1999.90;999.90;;;15.60;99.90;;;;;;4995798;28;20053;-74
2023/05/09 05:56:36;;;;;;;1999.90;999.90;;;15.70;99.90;;;;;;4995858;28;20057;-75
2023/05/09 05:59:02;;;;;;;1999.90;999.90;;;15.80;99.90;;;;;;4997653;28;20504;-74
2023/05/09 06:01:27;;;;;;;1999.90;999.90;;;15.70;99.90;;;;;;4995986;28;20035;-74
2023/05/09 06:03:55;;;;;;;1999.90;999.90;;;15.70;99.90;;;;;;4996870;28;20035;-75
2023/05/09 06:06:22;;;;;;;1999.90;999.90;;;15.70;99.90;;;;;;4997114;28;20493;-74
2023/05/09 06:08:50;;;;;;;1999.90;999.90;;;15.70;99.90;;;;;;4997261;28;20039;-80
2023/05/09 06:11:16;;;;;;;1999.90;999.90;;;15.70;99.90;;;;;;4997264;28;20035;-74
2023/05/09 06:13:42;;;;;;;1999.90;999.90;;;15.90;99.90;;;;;;4996986;28;20035;-75
2023/05/09 06:16:08;;;;;;;1999.90;999.90;;;15.90;99.90;;;;;;4995575;28;20393;-74
2023/05/09 06:18:36;;;;;;;1999.90;999.90;;;16.10;99.90;;;;;;4995061;28;20034;-74
2023/05/09 06:21:02;;;;;;;1999.90;999.90;;;16.10;99.90;;;;;;4995547;28;20026;-74
2023/05/09 06:23:28;;;;;;;1999.90;999.90;;;16.30;99.90;;;;;;4996495;28;20122;-74
2023/05/09 06:25:53;;;;;;;1999.90;999.90;;;16.40;99.90;;;;;;4996884;28;20504;-74
2023/05/09 06:28:19;;;;;;;1999.90;999.90;;;16.50;99.90;;;;;;4996511;28;20085;-74
2023/05/09 06:30:44;;;;;;;1999.90;999.90;;;16.50;99.90;;;;;;4997473;28;20089;-74
2023/05/09 06:33:10;;;;;;;1999.90;999.90;;;16.40;99.90;;;;;;4996991;28;20401;-74
2023/05/09 06:35:35;;;;;;;1999.90;999.90;;;16.60;99.90;;;;;;4995247;28;20392;-74
2023/05/09 06:38:01;;;;;;;1999.90;999.90;;;16.80;99.90;;;;;;4995026;28;20027;-74
2023/05/09 06:40:27;;;;;;;1999.90;999.90;;;17.00;99.90;;;;;;4997115;28;20508;-74
2023/05/09 06:42:52;;;;;;;1999.90;999.90;;;17.20;99.90;;;;;;4996656;28;20027;-74
2023/05/09 06:45:18;;;;;;;1999.90;999.90;;;17.40;99.90;;;;;;4996396;28;20039;-74
2023/05/09 06:47:43;;;;;;;1999.90;999.90;;;17.50;99.90;;;;;;4996551;28;20037;-74
2023/05/09 06:50:09;;;;;;;1999.90;999.90;;;17.80;99.90;;;;;;4996239;28;20128;-72
2023/05/09 06:52:34;;;;;;;1999.90;999.90;;;17.80;99.90;;;;;;4996742;28;20039;-72
2023/05/09 06:55:00;;;;;;;1999.90;999.90;;;18.00;99.90;;;;;;4996341;28;20500;-72
2023/05/09 06:57:26;;;;;;;1999.90;999.90;;;18.00;99.90;;;;;;4996310;28;20031;-72
2023/05/09 06:59:51;;;;;;;1999.90;999.90;;;18.10;99.90;;;;;;4996600;28;20038;-72
2023/05/09 07:02:17;;;;;;;1999.90;999.90;;;18.30;99.90;;;;;;4996479;28;20039;-72
2023/05/09 07:04:42;;;;;;;1999.90;999.90;;;18.20;99.90;;;;;;4995917;28;20066;-73
2023/05/09 07:07:08;;;;;;;1999.90;999.90;;;18.30;99.90;;;;;;4996019;28;20030;-72
2023/05/09 07:09:33;;;;;;;1999.90;999.90;;;18.40;99.90;;;;;;4996142;28;20043;-72
2023/05/09 07:12:00;;;;;;;1999.90;999.90;;;18.40;99.90;;;;;;4996113;28;20043;-73
2023/05/09 07:14:26;;;;;;;1999.90;999.90;;;18.60;99.90;;;;;;4996016;28;20031;-72
2023/05/09 07:16:51;;;;;;;1999.90;999.90;;;18.70;99.90;;;;;;4994506;28;20377;-73
2023/05/09 07:19:17;;;;;;;1999.90;999.90;;;18.80;99.90;;;;;;4996381;28;20136;-72
2023/05/09 07:21:42;;;;;;;1999.90;999.90;;;18.70;99.90;;;;;;4996082;28;20039;-73
2023/05/09 07:24:08;;;;;;;1999.90;999.90;;;18.90;99.90;;;;;;4996010;28;20099;-72
2023/05/09 07:26:38;;;;;;;1999.90;999.90;;;19.20;99.90;;;;;;4994797;28;20031;-72
2023/05/09 07:29:03;;;;;;;1999.90;999.90;;;19.30;99.90;;;;;;4996099;28;20504;-72
2023/05/09 07:31:29;;;;;;;1999.90;999.90;;;19.50;99.90;;;;;;4995978;28;20035;-72
2023/05/09 07:33:55;;;;;;;1999.90;999.90;;;19.80;99.90;;;;;;4994876;28;20168;-72
2023/05/09 07:36:20;;;;;;;1999.90;999.90;;;20.10;99.90;;;;;;4995526;28;20393;-72
2023/05/09 07:38:47;;;;;;;1999.90;999.90;;;20.00;99.90;;;;;;4995947;28;20493;-72
2023/05/09 07:41:13;;;;;;;1999.90;999.90;;;19.80;99.90;;;;;;4995687;28;20035;-72
2023/05/09 07:43:38;;;;;;;1999.90;999.90;;;19.90;99.90;;;;;;4995858;28;20031;-72
2023/05/09 07:46:04;;;;;;;1999.90;999.90;;;20.50;99.90;;;;;;4995503;28;20031;-72
2023/05/09 07:48:30;;;;;;;1999.90;999.90;;;20.90;99.90;;;;;;4995633;28;20037;-72
2023/05/09 07:50:55;;;;;;;1999.90;999.90;;;21.70;99.90;;;;;;4995201;28;20049;-72
2023/05/09 07:53:21;;;;;;;1999.90;999.90;;;21.80;99.90;;;;;;4995592;28;20031;-76
2023/05/09 07:55:48;;;;;;;1999.90;999.90;;;22.00;99.90;;;;;;4995381;28;20405;-75
2023/05/09 07:58:15;;;;;;;1999.90;999.90;;;21.70;99.90;;;;;;4995619;28;20521;-74
2023/05/09 08:00:41;;;;;;;1999.90;999.90;;;21.70;99.90;;;;;;4997706;28;20038;-74
2023/05/09 08:03:06;;;;;;;1999.90;999.90;;;21.80;99.90;;;;;;4995931;28;20042;-74
2023/05/09 08:05:32;;;;;;;1999.90;999.90;;;22.30;99.90;;;;;;4995561;28;20756;-75
2023/05/09 08:07:58;;;;;;;1999.90;999.90;;;22.20;99.90;;;;;;4993813;28;20035;-75
2023/05/09 08:10:25;;;;;;;1999.90;999.90;;;22.00;99.90;;;;;;4995309;28;20042;-76
2023/05/09 08:12:51;;;;;;;1999.90;999.90;;;22.10;99.90;;;;;;4995449;28;20030;-76
2023/05/09 08:15:16;;;;;;;1999.90;999.90;;;21.60;99.90;;;;;;4995159;28;20038;-75
2023/05/09 08:17:42;;;;;;;1999.90;999.90;;;21.50;99.90;;;;;;4993766;28;20026;-74
2023/05/09 08:20:09;;;;;;;1999.90;999.90;;;21.60;99.90;;;;;;4996241;28;20046;-73
2023/05/09 08:22:37;;;;;;;1999.90;999.90;;;21.90;99.90;;;;;;4994696;28;20034;-73
2023/05/09 08:25:03;;;;;;;1999.90;999.90;;;22.10;99.90;;;;;;4995046;28;20117;-72
2023/05/09 08:27:28;;;;;;;1999.90;999.90;;;21.70;99.90;;;;;;4994329;28;20449;-72
2023/05/09 08:29:54;;;;;;;1999.90;999.90;;;21.20;99.90;;;;;;4995103;28;20043;-73
2023/05/09 08:32:19;;;;;;;1999.90;999.90;;;21.60;99.90;;;;;;4994997;28;20030;-73
2023/05/09 08:34:45;;;;;;;1999.90;999.90;;;21.80;99.90;;;;;;4994689;28;20436;-73
2023/05/09 08:37:10;;;;;;;1999.90;999.90;;;22.30;99.90;;;;;;4996602;28;20031;-77
2023/05/09 08:39:36;;;;;;;1999.90;999.90;;;22.50;99.90;;;;;;4995212;28;20062;-74
2023/05/09 08:42:02;;;;;;;1999.90;999.90;;;22.10;99.90;;;;;;4994955;28;20060;-74
2023/05/09 08:44:30;;;;;;;1999.90;999.90;;;22.00;99.90;;;;;;4995355;28;20031;-72
2023/05/09 08:46:58;;;;;;;1999.90;999.90;;;22.00;99.90;;;;;;4997838;28;20031;-74
2023/05/09 08:49:24;;;;;;;1999.90;999.90;;;22.00;99.90;;;;;;4999325;28;20444;-73
2023/05/09 08:51:51;;;;;;;1999.90;999.90;;;21.90;99.90;;;;;;5000962;28;20075;-73
2023/05/09 08:54:17;;;;;;;1999.90;999.90;;;21.90;99.90;;;;;;4997260;28;20074;-72
2023/05/09 08:56:42;;;;;;;1999.90;999.90;;;22.00;99.20;;;;;;4998189;28;20483;-73
2023/05/09 08:59:09;;;;;;;1999.90;999.90;;;22.40;99.40;;;;;;4998278;28;20094;-74
2023/05/09 09:01:35;;;;;;;1999.90;999.90;;;22.70;99.90;;;;;;4999565;28;20493;-74
2023/05/09 09:04:04;;;;;;;1999.90;999.90;;;22.90;99.90;;;;;;4998584;28;20043;-74
2023/05/09 09:06:33;;;;;;;1999.90;999.90;;;23.20;98.60;;;;;;4998529;28;20090;-74
2023/05/09 09:08:59;;;;;;;1999.90;999.90;;;23.20;98.30;;;;;;4998626;28;20039;-74
2023/05/09 09:11:27;;;;;;;1999.90;999.90;;;23.30;97.60;;;;;;4999559;28;20034;-74
2023/05/09 09:13:54;;;;;;;1999.90;999.90;;;22.90;98.10;;;;;;4998822;28;20027;-74
2023/05/09 09:16:21;;;;;;;1999.90;999.90;;;22.80;98.90;;;;;;4998306;28;20125;-74
2023/05/09 09:18:50;;;;;;;1999.90;999.90;;;22.90;97.40;;;;;;4998330;28;20038;-74
2023/05/09 09:21:18;;;;;;;1999.90;999.90;;;22.50;98.20;;;;;;4998585;28;20078;-73
2023/05/09 09:23:46;;;;;;;1999.90;999.90;;;22.60;99.70;;;;;;4998582;28;20034;-74
2023/05/09 09:26:12;;;;;;;1999.90;999.90;;;23.00;98.80;;;;;;4998601;28;20037;-74
2023/05/09 09:28:38;;;;;;;1999.90;999.90;;;22.90;96.40;;;;;;4996476;28;20101;-75
2023/05/09 09:31:29;;;;;;;1999.90;999.90;;;22.90;97.70;;;;;;4996930;28;20066;-75
2023/05/09 09:34:00;;;;;;;1999.90;999.90;;;23.10;98.20;;;;;;4998332;28;20429;-74
2023/05/09 09:36:31;;;;;;;1999.90;999.90;;;22.90;98.60;;;;;;4996956;28;20512;-75
2023/05/09 09:39:03;;;;;;;1999.90;999.90;;;23.20;97.10;;;;;;4998804;28;20034;-75
2023/05/09 09:41:31;;;;;;;1999.90;999.90;;;23.20;97.30;;;;;;4998288;28;20034;-75
2023/05/09 09:43:56;;;;;;;1999.90;999.90;;;22.80;95.50;;;;;;4997135;28;20050;-75
2023/05/09 09:46:22;;;;;;;1999.90;999.90;;;22.30;96.90;;;;;;4995719;28;20043;-74
2023/05/09 09:48:53;;;;;;;1999.90;999.90;;;22.10;99.70;;;;;;4997462;28;20038;-74
2023/05/09 09:51:20;;;;;;;1999.90;999.90;;;22.30;99.10;;;;;;4997399;28;20516;-75
2023/05/09 09:53:46;;;;;;;1999.90;999.90;;;22.50;98.80;;;;;;4997788;28;20039;-75
2023/05/09 09:56:12;;;;;;;1999.90;999.90;;;23.00;97.90;;;;;;4997680;28;20035;-75
2023/05/09 09:58:37;;;;;;;1999.90;999.90;;;23.30;97.80;;;;;;4997231;28;20039;-75
2023/05/09 10:01:08;;;;;;;1999.90;999.90;;;23.60;96.60;;;;;;4997762;28;20572;-73
2023/05/09 10:03:38;;;;;;;1999.90;999.90;;;23.70;95.10;;;;;;4998209;28;20031;-74
2023/05/09 10:06:04;;;;;;;1999.90;999.90;;;23.70;97.10;;;;;;4998669;28;20058;-75
2023/05/09 10:08:30;;;;;;;1999.90;999.90;;;23.70;94.80;;;;;;4998671;28;20054;-74
2023/05/09 10:10:57;;;;;;;1999.90;999.90;;;23.50;95.50;;;;;;4997656;28;20038;-75
2023/05/09 10:13:24;;;;;;;1999.90;999.90;;;23.20;95.50;;;;;;4997425;28;20511;-75
2023/05/09 10:15:50;;;;;;;1999.90;999.90;;;23.20;96.70;;;;;;4997957;28;20070;-76
2023/05/09 10:18:18;;;;;;;1999.90;999.90;;;23.20;95.90;;;;;;4997911;28;20074;-74
2023/05/09 10:20:45;;;;;;;1999.90;999.90;;;23.50;95.40;;;;;;4996848;28;20031;-74
2023/05/09 10:23:13;;;;;;;1999.90;999.90;;;23.90;96.00;;;;;;4996821;28;20446;-74
2023/05/09 10:25:46;;;;;;;1999.90;999.90;;;24.20;95.80;;;;;;4996677;28;20117;-74
2023/05/09 10:28:16;;;;;;;1999.90;999.90;;;24.30;95.40;;;;;;4995430;28;20062;-74
2023/05/09 10:31:00;;;;;;;1999.90;999.90;;;24.20;94.40;;;;;;4996781;28;20061;-75
2023/05/09 10:33:37;;;;;;;1999.90;999.90;;;24.10;96.40;;;;;;4996982;28;20027;-74
2023/05/09 10:36:03;;;;;;;1999.90;999.90;;;24.10;97.20;;;;;;4996663;28;20034;-74
2023/05/09 10:38:30;;;;;;;1999.90;999.90;;;23.80;96.10;;;;;;4996436;28;20521;-74
2023/05/09 10:40:56;;;;;;;1999.90;999.90;;;24.10;93.50;;;;;;4997023;28;20050;-74
2023/05/09 10:43:23;;;;;;;1999.90;999.90;;;24.00;96.70;;;;;;4996633;28;20101;-74
2023/05/09 10:45:50;;;;;;;1999.90;999.90;;;24.00;95.60;;;;;;4996069;28;20033;-74
2023/05/09 10:48:17;;;;;;;1999.90;999.90;;;23.90;95.10;;;;;;4996214;28;20047;-74
2023/05/09 10:50:45;;;;;;;1999.90;999.90;;;24.10;95.70;;;;;;4996270;28;20043;-75
2023/05/09 10:53:13;;;;;;;1999.90;999.90;;;23.90;97.00;;;;;;4995238;28;20062;-77
2023/05/09 10:55:50;;;;;;;1999.90;999.90;;;24.10;96.20;;;;;;4996539;28;20167;-75
2023/05/09 10:58:25;;;;;;;1999.90;999.90;;;23.80;94.80;;;;;;4996925;28;20554;-76
2023/05/09 11:00:57;;;;;;;1999.90;999.90;;;22.90;95.10;;;;;;4997682;28;20374;-74
2023/05/09 11:03:24;;;;;;;1999.90;999.90;;;22.60;96.50;;;;;;4997877;28;20113;-77
2023/05/09 11:05:55;;;;;;;1999.90;999.90;;;22.40;95.80;;;;;;4996712;28;20050;-76
2023/05/09 11:08:24;;;;;;;1999.90;999.90;;;22.90;96.50;;;;;;4996208;28;20030;-75
2023/05/09 11:10:50;;;;;;;1999.90;999.90;;;23.50;95.30;;;;;;4995569;28;20038;-74
2023/05/09 11:13:22;;;;;;;1999.90;999.90;;;24.10;95.40;;;;;;4996177;28;20537;-73
2023/05/09 11:16:02;;;;;;;1999.90;999.90;;;23.80;94.00;;;;;;4994648;28;20038;-74
2023/05/09 11:18:29;;;;;;;1999.90;999.90;;;24.30;94.70;;;;;;4994140;28;20038;-73
2023/05/09 11:20:55;;;;;;;1999.90;999.90;;;24.10;94.80;;;;;;4994632;28;20525;-72
2023/05/09 11:23:25;;;;;;;1999.90;999.90;;;23.70;93.30;;;;;;4995748;28;20417;-73
2023/05/09 11:25:51;;;;;;;1999.90;999.90;;;23.60;95.10;;;;;;4995468;28;20511;-73
2023/05/09 11:28:28;;;;;;;1999.90;999.90;;;23.90;95.10;;;;;;4993382;28;20094;-73
2023/05/09 11:31:14;;;;;;;1999.90;999.90;;;23.30;92.80;;;;;;4995679;28;20045;-72
2023/05/09 11:33:41;;;;;;;1999.90;999.90;;;23.60;94.40;;;;;;4995922;28;20023;-72
2023/05/09 11:36:26;;;;;;;1999.90;999.90;;;23.80;94.00;;;;;;4995568;28;20031;-72
2023/05/09 11:39:10;;;;;;;1999.90;999.90;;;23.70;93.00;;;;;;4996069;28;20500;-72
2023/05/09 11:41:39;;;;;;;1999.90;999.90;;;24.00;96.80;;;;;;4996288;28;20042;-72
2023/05/09 11:44:13;;;;;;;1999.90;999.90;;;24.70;92.70;;;;;;4994028;28;20113;-72
2023/05/09 11:46:38;;;;;;;1999.90;999.90;;;25.10;93.30;;;;;;4995874;28;20042;-73
2023/05/09 11:49:06;;;;;;;1999.90;999.90;;;25.10;92.60;;;;;;4994110;28;20039;-72
2023/05/09 11:51:36;;;;;;;1999.90;999.90;;;24.60;91.50;;;;;;4995729;28;20031;-75
2023/05/09 11:54:02;;;;;;;1999.90;999.90;;;24.20;90.80;;;;;;4993753;28;20038;-75
2023/05/09 11:56:29;;;;;;;1999.90;999.90;;;24.10;91.10;;;;;;4993736;28;20090;-75
2023/05/09 11:58:55;;;;;;;1999.90;999.90;;;23.90;91.50;;;;;;4995610;28;20515;-73